Time;durP1;ratioP1;P1;durP2;ratioP2;P2;SDS_P1;SDS_P2;PMS_P1;PMS_P2;Temp;Humidity;BMP_temperature;BMP_pressure;BME280_temperature;BME280_humidity;BME280_pressure;Samples;Min_cycle;Max_cycle;Signal;HPM_P1;HPM_P2
2022/06/23 00:00:04;;;;;;;1.90;1.80;;;;;;;17.20;56.56;100614.78;5046395;28;20208;-78
2022/06/23 00:02:35;;;;;;;3.63;2.40;;;;;;;17.17;56.88;100616.94;5046359;28;20605;-79
2022/06/23 00:05:05;;;;;;;2.70;2.13;;;;;;;17.14;57.01;100626.13;5042344;28;20204;-80
2022/06/23 00:07:35;;;;;;;3.90;2.23;;;;;;;17.12;56.90;100621.88;5046978;28;20198;-80
2022/06/23 00:10:03;;;;;;;3.50;2.30;;;;;;;17.09;57.78;100616.75;5043522;28;20712;-78
2022/06/23 00:12:31;;;;;;;2.60;2.30;;;;;;;17.05;57.38;100623.41;5044146;28;20199;-78
2022/06/23 00:15:18;;;;;;;2.53;2.33;;;;;;;16.98;57.11;100631.22;5042285;28;20203;-78
2022/06/23 00:17:48;;;;;;;2.60;2.40;;;;;;;16.91;57.39;100627.34;5038155;28;20663;-79
2022/06/23 00:20:18;;;;;;;2.43;2.23;;;;;;;16.84;57.52;100623.53;5044444;28;20208;-80
2022/06/23 00:22:48;;;;;;;3.23;2.20;;;;;;;16.76;57.38;100631.44;5042456;28;20230;-79
2022/06/23 00:25:29;;;;;;;2.63;2.43;;;;;;;16.66;57.79;100636.75;5042214;28;20203;-79
2022/06/23 00:27:56;;;;;;;3.80;2.43;;;;;;;16.58;57.85;100642.81;5043462;28;20213;-78
2022/06/23 00:30:27;;;;;;;3.97;3.00;;;;;;;16.53;58.49;100628.91;5044210;28;20234;-79
2022/06/23 00:32:55;;;;;;;4.33;2.80;;;;;;;16.49;58.46;100632.84;5037436;28;20224;-79
2022/06/23 00:35:21;;;;;;;2.97;2.67;;;;;;;16.47;58.50;100631.31;5046149;28;20297;-79
2022/06/23 00:37:50;;;;;;;4.73;2.60;;;;;;;16.43;58.91;100628.03;5039991;28;20437;-79
2022/06/23 00:40:20;;;;;;;3.00;2.53;;;;;;;16.41;59.08;100624.63;5042727;28;20262;-78
2022/06/23 00:42:52;;;;;;;2.50;2.30;;;;;;;16.38;59.15;100621.34;5046759;28;20234;-78
2022/06/23 00:45:25;;;;;;;3.13;2.80;;;;;;;16.34;59.17;100615.38;5046104;28;20211;-79
2022/06/23 00:47:59;;;;;;;3.03;2.70;;;;;;;16.31;59.38;100607.59;5042955;28;20573;-78
2022/06/23 00:50:29;;;;;;;6.83;2.40;;;;;;;16.30;59.42;100617.47;5046777;28;20231;-78
2022/06/23 00:53:03;;;;;;;3.03;2.80;;;;;;;16.28;59.66;100613.25;5043582;28;20232;-78
2022/06/23 00:55:43;;;;;;;3.70;2.43;;;;;;;16.26;59.86;100626.81;5050445;28;20198;-78
2022/06/23 00:58:22;;;;;;;2.80;2.37;;;;;;;16.24;59.93;100628.78;5047053;28;20206;-76
2022/06/23 01:00:52;;;;;;;2.70;2.50;;;;;;;16.24;59.96;100630.63;5040679;28;20202;-78
2022/06/23 01:03:26;;;;;;;2.63;2.43;;;;;;;16.18;59.75;100632.00;5047988;28;20604;-79
2022/06/23 01:06:00;;;;;;;2.83;2.60;;;;;;;16.14;59.58;100637.75;5050997;28;20565;-77
2022/06/23 01:08:36;;;;;;;4.50;2.70;;;;;;;16.07;59.96;100636.63;5050216;28;20197;-79
2022/06/23 01:11:13;;;;;;;3.10;2.40;;;;;;;16.00;59.97;100635.44;5050763;28;20207;-78
2022/06/23 01:13:43;;;;;;;3.87;2.90;;;;;;;15.94;59.79;100642.19;5045552;28;20224;-79
2022/06/23 01:16:15;;;;;;;3.90;3.47;;;;;;;15.88;60.20;100638.19;5048001;28;20264;-79
2022/06/23 01:18:49;;;;;;;5.13;3.33;;;;;;;15.80;60.10;100635.31;5045451;28;20210;-79
2022/06/23 01:21:20;;;;;;;4.00;3.30;;;;;;;15.72;60.06;100637.81;5050400;28;20209;-79
2022/06/23 01:23:57;;;;;;;7.53;3.00;;;;;;;15.66;60.69;100637.47;5047846;28;20230;-78
2022/06/23 01:26:48;;;;;;;3.87;3.37;;;;;;;15.62;60.99;100637.72;5049628;28;20207;-78
2022/06/23 01:29:21;;;;;;;3.90;3.40;;;;;;;15.59;61.49;100640.66;5049806;28;20229;-79
2022/06/23 01:31:51;;;;;;;4.60;3.27;;;;;;;15.58;61.58;100648.88;5050429;28;20206;-77
2022/06/23 01:34:28;;;;;;;3.67;3.17;;;;;;;15.56;61.61;100645.44;5050127;28;20230;-81
2022/06/23 01:37:01;;;;;;;3.87;3.30;;;;;;;15.55;61.91;100638.34;5050589;28;20209;-77
2022/06/23 01:39:35;;;;;;;4.80;3.30;;;;;;;15.55;61.66;100635.66;5050924;28;20201;-79
2022/06/23 01:42:06;;;;;;;4.33;3.27;;;;;;;15.54;61.64;100639.31;5051195;28;20567;-82
2022/06/23 01:44:45;;;;;;;4.87;3.83;;;;;;;15.51;61.48;100640.44;5043057;28;20256;-77
2022/06/23 01:47:22;;;;;;;3.80;3.33;;;;;;;15.47;61.83;100646.19;5051122;28;20288;-80
2022/06/23 01:49:56;;;;;;;5.67;3.57;;;;;;;15.40;61.55;100645.84;5050675;28;20209;-77
2022/06/23 01:52:23;;;;;;;3.80;3.37;;;;;;;15.34;61.76;100637.47;5052077;28;20202;-79
2022/06/23 01:54:57;;;;;;;4.03;3.60;;;;;;;15.27;62.04;100635.28;5048144;28;20220;-78
2022/06/23 01:57:32;;;;;;;4.30;3.90;;;;;;;15.19;62.58;100637.75;5046311;28;20224;-78
2022/06/23 02:00:13;;;;;;;3.83;3.53;;;;;;;15.13;62.58;100640.94;5048263;28;20212;-79
2022/06/23 02:02:56;;;;;;;3.60;3.30;;;;;;;15.10;63.07;100638.50;5047949;28;20210;-80
2022/06/23 02:05:33;;;;;;;4.80;3.70;;;;;;;15.09;62.96;100641.31;5042386;28;20206;-77
2022/06/23 02:08:10;;;;;;;3.73;3.43;;;;;;;15.03;63.16;100640.00;5046614;28;20205;-77
2022/06/23 02:10:45;;;;;;;5.30;3.70;;;;;;;14.96;63.39;100636.09;5038617;28;20228;-78
2022/06/23 02:13:22;;;;;;;5.90;3.60;;;;;;;14.92;63.98;100643.53;5038669;28;21286;-80
2022/06/23 02:16:02;;;;;;;6.20;3.80;;;;;;;14.89;63.85;100642.94;5042543;28;20209;-79
2022/06/23 02:18:34;;;;;;;4.23;3.70;;;;;;;14.88;64.38;100641.22;5043919;28;20217;-81
2022/06/23 02:21:18;;;;;;;4.50;3.33;;;;;;;14.86;63.66;100645.88;5039323;28;20726;-80
2022/06/23 02:23:50;;;;;;;3.03;2.63;;;;;;;14.75;63.73;100632.47;5040436;28;20256;-79
2022/06/23 02:26:23;;;;;;;4.60;3.33;;;;;;;14.66;63.69;100642.13;5044013;28;20212;-78
2022/06/23 02:29:01;;;;;;;4.37;3.20;;;;;;;14.60;63.81;100637.25;5046642;28;20579;-79
2022/06/23 02:31:38;;;;;;;4.43;3.67;;;;;;;14.57;63.96;100635.66;5041942;28;20211;-79
2022/06/23 02:34:13;;;;;;;4.47;3.57;;;;;;;14.53;63.91;100633.34;5045520;28;20615;-79
2022/06/23 02:37:00;;;;;;;6.97;4.17;;;;;;;14.48;63.45;100638.25;5048887;28;20201;-79
2022/06/23 02:39:34;;;;;;;6.83;4.10;;;;;;;14.41;64.18;100640.56;5048226;28;20197;-78
2022/06/23 02:42:05;;;;;;;5.43;4.43;;;;;;;14.34;64.80;100644.66;5048224;28;20211;-80
2022/06/23 02:44:48;;;;;;;4.27;3.60;;;;;;;14.30;65.19;100643.22;5045402;28;20220;-78
2022/06/23 02:47:28;;;;;;;5.93;4.43;;;;;;;14.27;65.61;100645.28;5041670;28;20202;-79
2022/06/23 02:50:08;;;;;;;4.97;4.23;;;;;;;14.23;65.85;100645.50;5044349;28;20221;-78
2022/06/23 02:53:09;;;;;;;7.00;4.67;;;;;;;14.24;65.97;100636.50;5042209;28;20208;-77
2022/06/23 02:56:11;;;;;;;6.47;4.80;;;;;;;14.24;66.39;100635.66;5047200;28;20669;-79
2022/06/23 02:58:44;;;;;;;6.23;3.93;;;;;;;14.22;66.02;100635.75;5046265;28;20209;-78
2022/06/23 03:01:18;;;;;;;4.83;3.80;;;;;;;14.19;65.54;100632.47;5045100;28;20201;-78
2022/06/23 03:03:51;;;;;;;7.60;4.53;;;;;;;14.14;65.06;100637.34;5043953;28;20723;-78
2022/06/23 03:06:24;;;;;;;8.03;4.73;;;;;;;14.04;65.04;100623.81;5045468;28;20202;-78
2022/06/23 03:08:58;;;;;;;5.57;4.23;;;;;;;13.92;65.04;100624.78;5045667;28;20205;-79
2022/06/23 03:11:54;;;;;;;8.33;4.90;;;;;;;13.87;65.65;100629.63;5046055;28;20210;-78
2022/06/23 03:14:32;;;;;;;5.60;5.13;;;;;;;13.85;66.45;100626.22;5044346;28;20306;-78
2022/06/23 03:17:04;;;;;;;6.97;5.03;;;;;;;13.85;67.06;100628.88;5045097;28;20210;-79
2022/06/23 03:19:38;;;;;;;9.33;5.27;;;;;;;13.84;66.87;100632.53;5045309;28;20280;-80
2022/06/23 03:22:09;;;;;;;7.63;4.57;;;;;;;13.78;66.38;100631.22;5048848;28;20202;-79
2022/06/23 03:24:42;;;;;;;5.07;4.60;;;;;;;13.71;66.36;100634.47;5045250;28;20221;-78
2022/06/23 03:27:19;;;;;;;6.67;5.87;;;;;;;13.65;66.71;100626.88;5048367;28;20204;-78
2022/06/23 03:29:52;;;;;;;7.50;4.60;;;;;;;13.59;67.28;100641.63;5046865;28;20217;-78
2022/06/23 03:32:24;;;;;;;7.63;4.70;;;;;;;13.55;67.91;100632.97;5042024;28;20675;-80
2022/06/23 03:34:58;;;;;;;6.57;4.80;;;;;;;13.52;68.19;100645.72;5042321;28;20764;-78
2022/06/23 03:37:35;;;;;;;6.70;4.80;;;;;;;13.50;68.59;100644.97;5046334;28;20204;-76
2022/06/23 03:42:54;;;;;;;6.97;5.00;;;;;;;13.50;69.52;100650.31;5039408;28;20271;-78
2022/06/23 03:45:29;;;;;;;5.60;4.50;;;;;;;13.51;69.76;100652.88;5038238;28;20198;-78
2022/06/23 03:48:02;;;;;;;6.27;4.77;;;;;;;13.52;69.86;100659.09;5042878;28;20196;-78
2022/06/23 03:50:35;;;;;;;5.33;4.77;;;;;;;13.51;70.17;100662.72;5040378;28;20682;-77
2022/06/23 03:53:08;;;;;;;4.93;4.27;;;;;;;13.50;70.34;100669.91;5038882;28;20236;-78
2022/06/23 03:55:39;;;;;;;7.87;4.43;;;;;;;13.51;70.77;100665.41;5045377;28;20197;-78
2022/06/23 03:58:15;;;;;;;5.73;4.27;;;;;;;13.51;70.70;100668.94;5041378;28;20202;-77
2022/06/23 04:00:48;;;;;;;5.43;4.43;;;;;;;13.53;71.24;100666.16;5037594;28;20199;-78
2022/06/23 04:03:22;;;;;;;7.57;4.20;;;;;;;13.56;71.02;100679.28;5043144;28;20214;-78
2022/06/23 04:06:14;;;;;;;5.00;4.50;;;;;;;13.59;71.30;100668.38;5038090;28;20205;-79
2022/06/23 04:09:01;;;;;;;5.20;4.70;;;;;;;13.62;71.48;100665.44;5043831;28;20216;-78
2022/06/23 04:11:44;;;;;;;4.67;3.90;;;;;;;13.67;71.59;100675.81;5044461;28;20700;-79
2022/06/23 04:14:16;;;;;;;5.03;4.53;;;;;;;13.73;71.60;100672.66;5042427;28;20228;-77
2022/06/23 04:16:43;;;;;;;5.13;3.90;;;;;;;13.76;71.83;100669.75;5033856;28;20216;-78
2022/06/23 04:19:18;;;;;;;6.00;4.60;;;;;;;13.81;71.57;100671.09;5047950;28;20208;-79
2022/06/23 04:21:49;;;;;;;6.87;5.03;;;;;;;13.86;72.07;100674.28;5044963;28;20208;-79
2022/06/23 04:24:20;;;;;;;7.60;5.17;;;;;;;13.89;72.01;100665.16;5046493;28;20583;-79
2022/06/23 04:26:50;;;;;;;6.33;4.83;;;;;;;13.90;71.87;100674.91;5042333;28;20604;-79
2022/06/23 04:29:23;;;;;;;7.07;5.50;;;;;;;13.92;72.22;100680.16;5046394;28;20231;-79
2022/06/23 04:31:52;;;;;;;7.87;4.83;;;;;;;13.93;72.36;100688.06;5041614;28;20217;-78
2022/06/23 04:34:21;;;;;;;6.87;5.27;;;;;;;13.93;72.32;100684.53;5042538;28;20599;-78
2022/06/23 04:36:51;;;;;;;7.90;5.20;;;;;;;13.93;72.52;100687.22;5046146;28;20216;-78
2022/06/23 04:39:24;;;;;;;9.07;5.43;;;;;;;13.95;73.09;100685.28;5047939;28;20993;-78
2022/06/23 04:41:59;;;;;;;5.97;4.77;;;;;;;13.98;73.06;100687.69;5047774;28;20202;-79
2022/06/23 04:44:29;;;;;;;7.33;5.47;;;;;;;14.00;73.49;100685.75;5040261;28;20225;-78
2022/06/23 04:46:59;;;;;;;9.43;5.80;;;;;;;14.03;73.53;100688.19;5040682;28;20217;-78
2022/06/23 04:49:31;;;;;;;9.80;6.90;;;;;;;14.07;73.59;100687.00;5043035;28;20202;-79
2022/06/23 04:52:02;;;;;;;12.20;7.20;;;;;;;14.09;74.11;100699.31;5042742;28;20229;-81
2022/06/23 04:54:34;;;;;;;14.27;7.30;;;;;;;14.14;74.06;100698.97;5049386;28;20805;-79
2022/06/23 04:57:09;;;;;;;9.30;6.67;;;;;;;14.18;74.24;100697.72;5042773;28;20573;-78
2022/06/23 04:59:41;;;;;;;12.13;7.00;;;;;;;14.21;74.23;100692.97;5045771;28;20232;-79
2022/06/23 05:02:21;;;;;;;9.43;6.87;;;;;;;14.25;74.00;100694.47;5045632;28;20574;-78
2022/06/23 05:05:00;;;;;;;13.77;6.93;;;;;;;14.30;74.28;100696.78;5046830;28;20696;-80
2022/06/23 05:07:33;;;;;;;9.97;6.17;;;;;;;14.35;74.19;100702.63;5046940;28;20201;-80
2022/06/23 05:10:04;;;;;;;8.93;6.67;;;;;;;14.40;74.11;100699.59;5046373;28;20202;-78
2022/06/23 05:12:36;;;;;;;8.30;6.50;;;;;;;14.46;74.09;100693.78;5049091;28;20202;-79
2022/06/23 05:15:15;;;;;;;8.67;5.87;;;;;;;14.51;73.92;100697.78;5041794;28;20210;-78
2022/06/23 05:17:48;;;;;;;7.17;5.80;;;;;;;14.56;73.56;100694.75;5047738;28;20581;-78
2022/06/23 05:20:21;;;;;;;6.60;5.93;;;;;;;14.62;73.36;100688.06;5052772;28;20201;-78
2022/06/23 05:22:50;;;;;;;7.70;5.70;;;;;;;14.69;73.71;100689.28;5047808;28;20233;-78
2022/06/23 05:25:37;;;;;;;8.80;5.77;;;;;;;14.76;73.45;100694.03;5050952;28;20714;-78
2022/06/23 05:28:09;;;;;;;7.37;5.40;;;;;;;14.86;73.65;100688.78;5042836;28;20197;-80
2022/06/23 05:30:40;;;;;;;5.07;4.57;;;;;;;14.97;73.72;100688.78;5041918;28;20565;-79
2022/06/23 05:33:14;;;;;;;9.90;5.90;;;;;;;15.08;73.40;100691.41;5041655;28;20221;-78
2022/06/23 05:35:45;;;;;;;6.60;5.17;;;;;;;15.19;73.24;100695.94;5049180;28;20218;-77
2022/06/23 05:38:27;;;;;;;5.67;4.70;;;;;;;15.34;72.89;100699.19;5040293;28;20204;-80
2022/06/23 05:40:56;;;;;;;6.47;5.17;;;;;;;15.49;72.98;100695.22;5045645;28;20589;-80
2022/06/23 05:43:25;;;;;;;5.53;4.67;;;;;;;15.66;72.08;100696.53;5043636;28;20711;-80
2022/06/23 05:45:54;;;;;;;6.30;4.70;;;;;;;15.83;71.86;100694.13;5045073;28;20198;-80
2022/06/23 05:48:24;;;;;;;7.53;5.00;;;;;;;15.98;71.56;100695.50;5047385;28;20204;-80
2022/06/23 05:50:53;;;;;;;5.83;4.27;;;;;;;16.14;70.36;100691.50;5047861;28;20234;-79
2022/06/23 05:53:28;;;;;;;5.60;4.47;;;;;;;16.29;69.76;100692.91;5048446;28;20716;-81
2022/06/23 05:56:00;;;;;;;6.00;4.57;;;;;;;16.48;69.64;100684.09;5042044;28;20588;-79
2022/06/23 05:58:32;;;;;;;5.73;4.10;;;;;;;16.69;69.40;100686.72;5050570;28;20199;-79
2022/06/23 06:01:04;;;;;;;5.57;4.97;;;;;;;16.85;68.40;100687.94;5048900;28;20233;-79
2022/06/23 06:03:39;;;;;;;4.97;4.33;;;;;;;17.02;68.04;100689.09;5048535;28;20236;-80
2022/06/23 06:06:09;;;;;;;6.00;4.57;;;;;;;17.21;67.58;100702.63;5045241;28;20210;-79
2022/06/23 06:09:35;;;;;;;4.70;4.10;;;;;;;17.41;67.43;100694.56;5041336;28;20230;-80
2022/06/23 06:11:31;;;;;;;5.53;4.23;;;;;;;17.61;66.71;100691.75;5044378;28;20246;-79
2022/06/23 06:13:58;;;;;;;5.87;4.30;;;;;;;17.81;66.58;100694.50;5049096;28;20220;-79
2022/06/23 06:16:25;;;;;;;6.43;5.20;;;;;;;17.99;66.11;100696.31;5038505;28;20394;-79
2022/06/23 06:18:53;;;;;;;7.87;4.27;;;;;;;18.18;65.57;100692.75;5044994;28;20213;-80
2022/06/23 06:21:21;;;;;;;6.97;4.73;;;;;;;18.37;65.52;100695.41;5047783;28;20204;-80
2022/06/23 06:23:55;;;;;;;5.83;3.50;;;;;;;18.58;64.81;100697.91;5046106;28;20750;-79
2022/06/23 06:26:29;;;;;;;5.07;3.63;;;;;;;18.76;63.05;100694.44;5043211;28;20210;-77
2022/06/23 06:28:59;;;;;;;5.07;3.87;;;;;;;18.91;62.36;100691.09;5043223;28;20246;-80
2022/06/23 06:31:32;;;;;;;5.57;4.03;;;;;;;19.09;62.01;100691.16;5042880;28;20209;-80
2022/06/23 06:34:05;;;;;;;7.10;3.90;;;;;;;19.27;61.91;100683.09;5043346;28;20228;-80
2022/06/23 06:36:36;;;;;;;5.63;3.50;;;;;;;19.47;61.19;100684.66;5041685;28;20894;-79
2022/06/23 06:39:11;;;;;;;6.70;3.30;;;;;;;19.65;60.26;100685.53;5040911;28;20213;-77
2022/06/23 06:41:40;;;;;;;5.73;3.30;;;;;;;19.83;59.88;100680.13;5041818;28;20671;-78
2022/06/23 06:44:07;;;;;;;3.70;3.20;;;;;;;20.01;58.79;100690.91;5045740;28;20225;-80
2022/06/23 06:46:35;;;;;;;5.03;3.40;;;;;;;20.15;58.07;100694.91;5045569;28;20215;-81
2022/06/23 06:49:02;;;;;;;3.80;3.40;;;;;;;20.27;57.36;100685.50;5043892;28;20212;-78
2022/06/23 06:51:30;;;;;;;6.17;3.97;;;;;;;20.40;57.77;100688.69;5043163;28;20229;-79
2022/06/23 06:54:00;;;;;;;3.93;3.50;;;;;;;20.52;56.86;100698.22;5037649;28;20223;-81
2022/06/23 06:56:37;;;;;;;7.10;3.57;;;;;;;20.63;57.39;100697.09;5039875;28;20198;-77
2022/06/23 06:59:10;;;;;;;3.60;3.10;;;;;;;20.79;57.02;100699.88;5043564;28;20207;-80
2022/06/23 07:01:39;;;;;;;3.87;3.40;;;;;;;20.97;56.83;100703.34;5040767;28;20608;-81
2022/06/23 07:04:08;;;;;;;4.07;3.43;;;;;;;21.15;56.32;100705.94;5041745;28;20660;-77
2022/06/23 07:06:41;;;;;;;5.97;3.80;;;;;;;21.28;55.74;100706.38;5039605;28;20212;-80
2022/06/23 07:09:14;;;;;;;5.88;4.05;;;;;;;21.43;55.96;100704.72;5042055;28;20228;-79
2022/06/23 07:11:49;;;;;;;6.25;4.10;;;;;;;21.60;55.74;100694.75;5038209;28;20251;-78
2022/06/23 07:14:22;;;;;;;3.25;2.95;;;;;;;21.75;55.54;100697.66;5042335;28;20232;-78
2022/06/23 07:16:53;;;;;;;4.35;3.92;;;;;;;21.92;55.22;100699.38;5036618;28;20299;-81
2022/06/23 07:19:26;;;;;;;7.63;3.45;;;;;;;22.07;54.46;100692.28;5037909;28;20212;-78
2022/06/23 07:22:00;;;;;;;5.03;3.88;;;;;;;22.21;54.48;100685.31;5041857;28;20667;-79
2022/06/23 07:24:33;;;;;;;4.72;3.33;;;;;;;22.38;54.05;100689.72;5045866;28;20737;-79
2022/06/23 07:27:06;;;;;;;3.65;3.03;;;;;;;22.52;53.21;100696.28;5042524;28;20215;-79
2022/06/23 07:29:40;;;;;;;6.00;3.13;;;;;;;22.66;53.10;100694.72;5042820;28;20205;-79
2022/06/23 07:32:15;;;;;;;5.07;3.15;;;;;;;22.80;52.13;100688.59;5041128;28;20223;-80
2022/06/23 07:34:47;;;;;;;6.13;3.50;;;;;;;22.92;51.58;100698.06;5044726;28;20224;-80
2022/06/23 07:37:28;;;;;;;4.43;3.20;;;;;;;23.06;51.68;100686.44;5044412;28;20197;-78
2022/06/23 07:40:01;;;;;;;5.68;3.13;;;;;;;23.23;51.56;100684.50;5044644;28;20227;-80
2022/06/23 07:42:45;;;;;;;3.95;2.80;;;;;;;23.43;51.14;100690.34;5045020;28;20957;-81
2022/06/23 07:45:16;;;;;;;4.75;2.90;;;;;;;23.60;50.25;100680.22;5042584;28;20198;-79
2022/06/23 07:47:42;;;;;;;3.28;2.40;;;;;;;23.72;49.72;100687.78;5041481;28;20551;-79
2022/06/23 07:50:10;;;;;;;4.97;2.63;;;;;;;23.79;48.34;100683.31;5048733;28;20208;-79
2022/06/23 07:52:37;;;;;;;2.78;2.47;;;;;;;23.86;48.14;100677.97;5043519;28;20220;-80
2022/06/23 07:55:04;;;;;;;5.38;2.70;;;;;;;23.99;47.83;100680.09;5042935;28;20210;-77
2022/06/23 07:57:35;;;;;;;3.40;2.42;;;;;;;24.19;47.60;100681.25;5045718;28;20202;-80
2022/06/23 08:00:06;;;;;;;2.70;2.50;;;;;;;24.33;46.65;100682.34;5037755;28;20580;-81
2022/06/23 08:02:42;;;;;;;3.25;2.50;;;;;;;24.48;46.25;100675.03;5046302;28;20227;-80
2022/06/23 08:05:16;;;;;;;3.67;2.60;;;;;;;24.64;45.50;100679.47;5043641;28;20205;-80
2022/06/23 08:07:43;;;;;;;3.80;2.90;;;;;;;24.77;44.86;100677.75;5046622;28;20236;-77
2022/06/23 08:10:12;;;;;;;2.92;2.42;;;;;;;24.87;45.17;100675.63;5050141;28;20220;-79
2022/06/23 08:12:55;;;;;;;2.85;2.45;;;;;;;25.04;45.02;100669.97;5051012;28;20221;-80
2022/06/23 08:18:20;;;;;;;3.08;2.40;;;;;;;25.41;44.35;100668.94;5047653;28;20639;-79
2022/06/23 08:20:53;;;;;;;3.97;2.28;;;;;;;25.56;43.81;100677.91;5048905;28;20213;-79
2022/06/23 08:23:23;;;;;;;2.75;2.47;;;;;;;25.67;42.81;100677.44;5048465;28;20240;-80
2022/06/23 08:25:50;;;;;;;4.05;2.55;;;;;;;25.76;42.86;100669.97;5049750;28;20812;-80
2022/06/23 08:28:19;;;;;;;4.90;2.15;;;;;;;25.86;42.46;100673.19;5042544;28;20546;-79
2022/06/23 08:30:46;;;;;;;4.95;3.03;;;;;;;25.95;42.38;100666.59;5040932;28;20209;-79
2022/06/23 08:33:13;;;;;;;4.45;2.53;;;;;;;26.06;43.01;100666.03;5040609;28;20233;-78
2022/06/23 08:35:42;;;;;;;3.38;2.70;;;;;;;26.15;42.39;100664.03;5047945;28;20216;-78
2022/06/23 08:38:12;;;;;;;4.20;2.40;;;;;;;26.26;42.89;100656.13;5042901;28;20209;-78
2022/06/23 08:40:54;;;;;;;4.18;2.72;;;;;;;26.46;42.68;100659.03;5044691;28;20206;-78
2022/06/23 08:43:30;;;;;;;3.45;2.47;;;;;;;26.64;42.46;100653.03;5047280;28;20226;-80
2022/06/23 08:46:06;;;;;;;3.97;2.28;;;;;;;26.81;41.85;100659.84;5049732;28;20209;-80
2022/06/23 08:48:40;;;;;;;2.78;2.40;;;;;;;26.94;41.15;100653.63;5050014;28;20555;-81
2022/06/23 08:51:14;;;;;;;3.35;2.20;;;;;;;27.00;40.94;100651.97;5048491;28;20539;-78
2022/06/23 08:53:48;;;;;;;3.83;2.30;;;;;;;27.08;40.71;100649.06;5048612;28;20248;-77
2022/06/23 08:56:24;;;;;;;4.50;2.70;;;;;;;27.12;40.29;100650.34;5044351;28;20207;-77
2022/06/23 08:58:58;;;;;;;3.58;2.30;;;;;;;27.20;40.19;100647.44;5041848;28;20656;-78
2022/06/23 09:01:30;;;;;;;4.22;2.40;;;;;;;27.29;39.59;100640.72;5043472;28;20399;-80
2022/06/23 09:04:04;;;;;;;3.65;2.38;;;;;;;27.42;40.07;100640.75;5048304;28;20225;-77
2022/06/23 09:06:37;;;;;;;3.10;2.33;;;;;;;27.54;39.29;100638.25;5043067;28;20683;-79
2022/06/23 09:09:18;;;;;;;2.65;2.20;;;;;;;27.61;38.49;100641.84;5042807;28;20202;-78
2022/06/23 09:11:55;;;;;;;6.35;2.53;;;;;;;27.76;38.72;100638.94;5043912;28;20568;-80
2022/06/23 09:14:40;;;;;;;2.40;2.20;;;;;;;27.90;38.29;100637.91;5048699;28;20221;-77
2022/06/23 09:17:25;;;;;;;2.28;2.08;;;;;;;27.95;37.74;100640.81;5043751;28;20217;-78
2022/06/23 09:20:03;;;;;;;3.15;2.22;;;;;;;28.06;37.71;100642.94;5043017;28;20709;-78
2022/06/23 09:22:53;;;;;;;2.78;2.15;;;;;;;28.25;37.54;100639.38;5043055;28;20204;-79
2022/06/23 09:25:32;;;;;;;2.97;2.38;;;;;;;28.44;37.17;100640.41;5043924;28;20205;-79
2022/06/23 09:28:14;;;;;;;3.40;1.98;;;;;;;28.57;36.92;100634.88;5043643;28;20655;-81
2022/06/23 09:30:52;;;;;;;3.00;2.20;;;;;;;28.65;36.12;100631.94;5042954;28;20244;-80
2022/06/23 09:33:25;;;;;;;4.20;2.17;;;;;;;28.75;35.65;100636.09;5042951;28;20225;-78
2022/06/23 09:36:07;;;;;;;3.22;2.00;;;;;;;28.89;35.84;100627.63;5046320;28;20205;-79
2022/06/23 09:39:08;;;;;;;3.83;2.30;;;;;;;29.10;35.89;100625.66;5044766;28;20201;-79
2022/06/23 09:42:15;;;;;;;2.53;2.33;;;;;;;29.22;35.70;100627.47;5044930;28;20240;-78
2022/06/23 09:45:06;;;;;;;2.33;2.10;;;;;;;29.31;35.69;100619.84;4945434;28;20224;-79
2022/06/23 09:48:09;;;;;;;2.35;1.88;;;;;;;29.40;35.51;100618.53;5040639;28;20210;-78
2022/06/23 09:50:52;;;;;;;2.97;2.10;;;;;;;29.56;34.81;100617.19;5046500;28;20197;-77
2022/06/23 09:53:53;;;;;;;2.55;2.20;;;;;;;29.64;34.69;100606.75;5044101;28;20225;-80
2022/06/23 09:56:43;;;;;;;2.88;2.40;;;;;;;29.79;34.84;100613.81;4972780;28;20200;-78
2022/06/23 09:59:29;;;;;;;4.28;2.10;;;;;;;29.88;33.52;100615.25;5040333;28;20672;-79
2022/06/23 10:02:05;;;;;;;2.90;1.85;;;;;;;29.95;32.20;100605.00;5046373;28;20202;-81
2022/06/23 10:04:49;;;;;;;3.10;1.77;;;;;;;30.03;31.83;100600.13;5046467;28;20228;-80
2022/06/23 10:07:33;;;;;;;2.90;2.10;;;;;;;30.17;32.55;100605.47;5047727;28;20204;-80
2022/06/23 10:10:12;;;;;;;5.38;2.10;;;;;;;30.26;31.91;100604.97;5050286;28;20208;-79
2022/06/23 10:12:54;;;;;;;2.45;1.95;;;;;;;30.24;31.85;100598.88;5050264;28;20636;-80
2022/06/23 10:15:36;;;;;;;1.63;1.52;;;;;;;30.27;30.92;100589.34;5047295;28;20201;-81
2022/06/23 10:18:19;;;;;;;2.55;2.03;;;;;;;30.31;31.19;100594.13;5043934;28;20197;-80
2022/06/23 10:20:57;;;;;;;2.15;1.88;;;;;;;30.30;30.67;100600.69;5047557;28;20201;-80
2022/06/23 10:23:50;;;;;;;3.58;1.90;;;;;;;30.33;30.96;100602.97;5044808;28;20236;-79
2022/06/23 10:26:33;;;;;;;1.95;1.77;;;;;;;30.39;30.74;100604.84;5047480;28;20205;-79
2022/06/23 10:29:19;;;;;;;1.88;1.73;;;;;;;30.50;30.30;100602.38;5047268;28;20203;-82
2022/06/23 10:32:23;;;;;;;2.00;1.70;;;;;;;30.62;29.86;100598.69;5039065;28;20213;-81
2022/06/23 10:35:03;;;;;;;2.53;1.80;;;;;;;30.68;30.42;100583.16;5027043;28;20229;-80
2022/06/23 10:37:51;;;;;;;3.13;1.80;;;;;;;30.76;30.41;100577.38;5038288;28;20202;-81
2022/06/23 10:40:45;;;;;;;1.90;1.40;;;;;;;30.88;30.39;100577.41;5042248;28;20197;-80
2022/06/23 10:43:32;;;;;;;2.78;1.80;;;;;;;30.94;29.79;100573.75;5046275;28;20222;-79
2022/06/23 10:46:03;;;;;;;2.63;1.85;;;;;;;30.96;29.69;100575.19;5047679;28;20201;-81
2022/06/23 10:48:58;;;;;;;2.55;1.75;;;;;;;31.02;29.74;100573.41;5038517;28;20579;-80
2022/06/23 10:51:40;;;;;;;1.98;1.75;;;;;;;31.04;29.96;100579.53;5040111;28;20206;-79
2022/06/23 10:54:44;;;;;;;2.90;2.20;;;;;;;31.01;30.21;100578.06;5045439;28;20229;-79
2022/06/23 10:57:33;;;;;;;1.73;1.63;;;;;;;31.12;30.62;100564.66;5047487;28;20215;-79
2022/06/23 11:00:07;;;;;;;1.95;1.63;;;;;;;31.21;30.26;100560.47;5046389;28;20198;-78
2022/06/23 11:03:07;;;;;;;3.20;1.67;;;;;;;31.21;28.71;100577.81;5045336;28;20209;-79
2022/06/23 11:05:45;;;;;;;4.50;1.98;;;;;;;31.20;28.52;100567.03;5044702;28;20209;-78
2022/06/23 11:08:30;;;;;;;2.03;1.80;;;;;;;31.23;29.24;100567.41;5047409;28;20211;-78
2022/06/23 11:11:14;;;;;;;4.20;2.10;;;;;;;31.25;28.52;100557.03;5043882;28;20211;-80
2022/06/23 11:13:51;;;;;;;2.47;2.05;;;;;;;31.30;28.83;100556.31;5041740;28;20233;-79
2022/06/23 11:16:32;;;;;;;1.70;1.60;;;;;;;31.40;28.72;100560.16;5038586;28;20299;-80
2022/06/23 11:19:17;;;;;;;3.08;1.58;;;;;;;31.42;28.08;100552.53;5040039;28;20198;-81
2022/06/23 11:21:59;;;;;;;2.58;1.80;;;;;;;31.42;27.60;100540.69;5043842;28;20296;-79
2022/06/23 11:24:42;;;;;;;2.00;1.90;;;;;;;31.46;27.67;100530.88;5041645;28;20232;-81
2022/06/23 11:27:17;;;;;;;3.00;1.55;;;;;;;31.51;27.38;100539.28;5040997;28;20205;-80
2022/06/23 11:30:02;;;;;;;2.35;1.60;;;;;;;31.58;26.72;100539.13;5040489;28;20201;-77
2022/06/23 11:32:39;;;;;;;2.70;1.45;;;;;;;31.69;26.84;100536.44;5042274;28;20703;-79
2022/06/23 11:35:33;;;;;;;2.95;1.60;;;;;;;31.83;27.30;100523.28;5044799;28;20230;-79
2022/06/23 11:38:24;;;;;;;1.92;1.60;;;;;;;31.97;27.11;100518.34;5037141;28;20233;-80
2022/06/23 11:41:00;;;;;;;3.17;1.75;;;;;;;32.06;26.90;100514.16;5038638;28;20611;-81
2022/06/23 11:43:40;;;;;;;2.58;1.90;;;;;;;32.10;25.93;100510.66;5040792;28;20719;-79
2022/06/23 11:46:20;;;;;;;3.33;1.70;;;;;;;32.14;26.31;100513.78;5044437;28;20194;-79
2022/06/23 11:49:01;;;;;;;3.58;1.80;;;;;;;32.19;25.44;100510.31;5038779;28;20293;-78
2022/06/23 11:51:47;;;;;;;2.40;1.80;;;;;;;32.23;25.83;100504.13;5043577;28;20216;-81
2022/06/23 11:54:26;;;;;;;2.85;1.95;;;;;;;32.31;26.78;100506.47;5039246;28;20229;-79
2022/06/23 11:57:05;;;;;;;2.05;1.75;;;;;;;32.41;26.75;100506.69;5047649;28;20209;-78
2022/06/23 11:59:49;;;;;;;2.22;1.70;;;;;;;32.49;27.54;100491.69;5047945;28;20194;-81
2022/06/23 12:02:16;;;;;;;1.80;1.70;;;;;;;32.50;27.20;100506.31;5050124;28;20189;-80
2022/06/23 12:05:00;;;;;;;3.03;1.85;;;;;;;32.52;27.09;100501.38;5050558;28;20251;-81
2022/06/23 12:07:47;;;;;;;3.42;1.80;;;;;;;32.50;27.17;100509.06;5047537;28;20197;-80
2022/06/23 12:10:17;;;;;;;3.58;1.80;;;;;;;32.41;26.56;100495.69;5043276;28;20213;-79